Andover, Connecticut
Current Conditions -  °F | °C
As of 10:52 AM on Thursday 30 Oct 2014 (Local Time) from KIJD Reporting Station
Few Clouds Few Clouds  
Wind Chill: 12°   Ceiling: Unl
Heat Index: 12°   Visibility: 10mi
Dew Point:   Wind: 12mph
Humidity: 55%   Direction: 320°NW
Pressure: 29.97"   Gusts: 18mph
Location:  41.74°N, 72.37°W
Report Text: KIJD 301452Z AUTO 32010G16KT 10SM FEW075 12/03 A2997 RMK AO2 SLP149 T01220033 50000
Loading
Personal Weather Stations






























Interactive Weather Map
Tropical Storm Tracking
New forecast layout! Learn more

10-Day Weather Forecast

Advertisements
Track Severe Weather on mobile